createdAt,value
2022-10-21T00:01:09.539Z,6.34
2022-10-21T00:02:42.705Z,6.32
2022-10-21T00:04:15.969Z,6.29
2022-10-21T00:05:48.768Z,6.10
2022-10-21T00:07:21.900Z,6.11
2022-10-21T00:08:55.067Z,6.02
2022-10-21T00:10:28.720Z,5.91
2022-10-21T00:12:01.940Z,5.87
2022-10-21T00:13:38.740Z,5.98
2022-10-21T00:15:11.795Z,6.01
2022-10-21T00:16:46.654Z,6.02
2022-10-21T00:18:19.812Z,6.02
2022-10-21T00:19:53.208Z,6.05
2022-10-21T00:21:26.430Z,6.04
2022-10-21T00:22:59.009Z,6.01
2022-10-21T00:24:32.164Z,5.93
2022-10-21T00:26:05.895Z,5.90
2022-10-21T00:27:39.471Z,5.90
2022-10-21T00:29:12.136Z,5.95
2022-10-21T00:30:45.989Z,6.00
2022-10-21T00:32:20.631Z,6.04
2022-10-21T00:33:53.786Z,6.05
2022-10-21T00:35:27.339Z,6.04
2022-10-21T00:37:00.537Z,6.00
2022-10-21T00:38:33.687Z,6.05
2022-10-21T00:40:07.598Z,6.09
2022-10-21T00:41:41.256Z,6.05
2022-10-21T00:43:14.723Z,5.94
2022-10-21T00:45:29.732Z,6.02
2022-10-21T00:47:07.727Z,6.00
2022-10-21T00:48:46.357Z,6.02
2022-10-21T00:50:26.238Z,6.02
2022-10-21T00:52:02.764Z,6.03
2022-10-21T00:53:38.178Z,6.03
2022-10-21T00:55:12.025Z,6.04
2022-10-21T00:56:47.866Z,6.05
2022-10-21T00:58:25.983Z,6.07
2022-10-21T01:00:02.598Z,6.01
2022-10-21T01:01:34.906Z,5.99
2022-10-21T01:03:08.093Z,5.96
2022-10-21T01:04:42.780Z,5.83
2022-10-21T01:06:18.074Z,5.91
2022-10-21T01:07:52.185Z,5.91
2022-10-21T01:09:26.089Z,5.83
2022-10-21T01:10:59.146Z,5.66
2022-10-21T01:12:41.233Z,5.75
2022-10-21T01:14:49.254Z,5.72
2022-10-21T01:16:29.946Z,5.65
2022-10-21T01:18:09.889Z,5.60
2022-10-21T01:20:20.032Z,5.58
2022-10-21T01:22:00.789Z,5.58
2022-10-21T01:24:22.662Z,5.61
2022-10-21T01:26:21.012Z,5.62
2022-10-21T01:28:05.952Z,5.54
2022-10-21T01:30:09.248Z,5.65
2022-10-21T01:31:47.749Z,5.61
2022-10-21T01:33:40.407Z,5.63
2022-10-21T01:35:20.702Z,5.65
2022-10-21T01:36:58.126Z,5.67
2022-10-21T01:38:37.928Z,5.69
2022-10-21T01:40:18.981Z,5.65
2022-10-21T01:42:03.016Z,5.64
2022-10-21T01:43:42.613Z,5.65
2022-10-21T01:45:20.617Z,5.67
2022-10-21T01:46:59.424Z,5.68
2022-10-21T01:48:36.483Z,5.66
2022-10-21T01:50:13.094Z,5.72
2022-10-21T01:51:46.490Z,5.75
2022-10-21T01:53:19.965Z,5.78
2022-10-21T01:54:59.492Z,5.78
2022-10-21T01:56:32.677Z,5.78
2022-10-21T01:58:10.057Z,5.78
2022-10-21T01:59:45.674Z,5.74
2022-10-21T02:01:21.453Z,5.68
2022-10-21T02:02:57.921Z,5.63
2022-10-21T02:04:34.884Z,5.58
2022-10-21T02:06:07.424Z,5.52
2022-10-21T02:07:40.780Z,5.48
2022-10-21T02:09:14.030Z,5.46
2022-10-21T02:10:48.935Z,5.42
2022-10-21T02:12:24.940Z,5.42
2022-10-21T02:14:02.960Z,5.42
2022-10-21T02:15:38.686Z,5.36
2022-10-21T02:17:15.121Z,5.40
2022-10-21T02:18:49.785Z,5.38
2022-10-21T02:20:25.593Z,5.36
2022-10-21T02:22:03.021Z,5.26
2022-10-21T02:23:43.174Z,5.24
2022-10-21T02:25:19.872Z,5.22
2022-10-21T02:26:55.891Z,5.20
2022-10-21T02:28:29.196Z,5.21
2022-10-21T02:30:03.274Z,5.22
2022-10-21T02:31:51.665Z,5.25
2022-10-21T02:33:34.049Z,5.26
2022-10-21T02:35:21.828Z,5.30
2022-10-21T02:37:04.009Z,5.29
2022-10-21T02:38:42.004Z,5.25
2022-10-21T02:40:19.550Z,5.20
2022-10-21T02:41:55.783Z,5.18
2022-10-21T02:43:33.279Z,5.15
2022-10-21T02:45:08.273Z,5.07
2022-10-21T02:46:43.808Z,5.12
2022-10-21T02:48:17.128Z,5.12
2022-10-21T02:49:50.236Z,5.09
2022-10-21T02:51:23.824Z,5.07
2022-10-21T02:52:57.125Z,5.06
2022-10-21T02:54:30.309Z,5.01
2022-10-21T02:56:03.633Z,4.93
2022-10-21T02:57:37.105Z,4.89
2022-10-21T02:59:10.650Z,4.83
2022-10-21T03:00:43.875Z,4.79
2022-10-21T03:02:17.133Z,4.72
2022-10-21T03:03:49.413Z,4.72
2022-10-21T03:05:22.735Z,4.71
2022-10-21T03:06:56.316Z,4.68
2022-10-21T03:08:29.508Z,4.65
2022-10-21T03:10:02.959Z,4.65
2022-10-21T03:11:36.266Z,4.65
2022-10-21T03:13:09.580Z,4.66
2022-10-21T03:14:42.725Z,4.70
2022-10-21T03:16:15.054Z,4.73
2022-10-21T03:17:48.374Z,4.73
2022-10-21T03:19:21.597Z,4.71
2022-10-21T03:20:54.797Z,4.68
2022-10-21T03:22:29.448Z,4.58
2022-10-21T03:24:01.543Z,4.36
2022-10-21T03:25:35.792Z,4.35
2022-10-21T03:27:09.272Z,4.30
2022-10-21T03:28:42.571Z,4.29
2022-10-21T03:30:15.733Z,4.28
2022-10-21T03:31:49.030Z,4.28
2022-10-21T03:33:21.196Z,4.30
2022-10-21T03:34:54.493Z,4.31
2022-10-21T03:36:27.734Z,4.19
2022-10-21T03:38:02.369Z,4.27
2022-10-21T03:39:35.559Z,4.26
2022-10-21T03:41:07.830Z,4.25
2022-10-21T03:42:41.367Z,4.21
2022-10-21T03:44:14.891Z,4.22
2022-10-21T03:45:47.945Z,4.23
2022-10-21T03:47:21.194Z,4.21
2022-10-21T03:48:57.228Z,4.19
2022-10-21T03:50:32.503Z,4.18
2022-10-21T03:52:06.250Z,4.21
2022-10-21T03:53:43.584Z,4.20
2022-10-21T03:55:20.776Z,4.22
2022-10-21T03:56:54.253Z,4.23
2022-10-21T03:58:28.484Z,4.19
2022-10-21T04:00:00.777Z,4.19
2022-10-21T04:01:34.228Z,4.19
2022-10-21T04:03:07.494Z,4.16
2022-10-21T04:04:40.687Z,4.16
2022-10-21T04:06:13.911Z,4.17
2022-10-21T04:07:50.731Z,4.18
2022-10-21T04:09:27.804Z,4.08
2022-10-21T04:11:01.205Z,4.16
2022-10-21T04:12:34.586Z,4.17
2022-10-21T04:14:11.507Z,4.16
2022-10-21T04:15:47.719Z,4.15
2022-10-21T04:17:19.893Z,4.12
2022-10-21T04:18:53.177Z,4.12
2022-10-21T04:20:26.625Z,4.16
2022-10-21T04:21:59.794Z,4.18
2022-10-21T04:23:32.072Z,4.18
2022-10-21T04:25:07.609Z,4.22
2022-10-21T04:26:41.889Z,4.26
2022-10-21T04:28:15.200Z,4.28
2022-10-21T04:29:48.311Z,4.33
2022-10-21T04:31:21.564Z,4.37
2022-10-21T04:32:54.790Z,4.39
2022-10-21T04:34:28.037Z,4.39
2022-10-21T04:36:01.334Z,4.40
2022-10-21T04:37:34.642Z,4.40
2022-10-21T04:39:07.933Z,4.38
2022-10-21T04:40:42.619Z,4.35
2022-10-21T04:42:15.849Z,4.33
2022-10-21T04:43:49.082Z,4.29
2022-10-21T04:45:22.264Z,4.29
2022-10-21T04:46:55.470Z,4.30
2022-10-21T04:48:28.644Z,4.29
2022-10-21T04:50:01.775Z,4.30
2022-10-21T04:51:35.093Z,4.31
2022-10-21T04:53:08.321Z,4.33
2022-10-21T04:54:41.464Z,4.34
2022-10-21T04:56:16.089Z,4.37
2022-10-21T04:57:48.305Z,4.37
2022-10-21T04:59:21.632Z,4.38
2022-10-21T05:00:54.826Z,4.42
2022-10-21T05:02:28.427Z,4.45
2022-10-21T05:04:01.632Z,4.49
2022-10-21T05:05:34.906Z,4.51
2022-10-21T05:07:08.011Z,4.54
2022-10-21T05:08:41.253Z,4.51
2022-10-21T05:10:14.713Z,4.46
2022-10-21T05:11:49.433Z,4.43
2022-10-21T05:13:22.537Z,4.43
2022-10-21T05:14:55.708Z,4.38
2022-10-21T05:16:28.985Z,4.33
2022-10-21T05:18:02.501Z,4.30
2022-10-21T05:19:35.680Z,4.33
2022-10-21T05:21:09.185Z,4.35
2022-10-21T05:22:42.588Z,4.44
2022-10-21T05:24:16.355Z,4.50
2022-10-21T05:25:51.674Z,4.65
2022-10-21T05:27:26.282Z,4.60
2022-10-21T05:28:59.884Z,4.64
2022-10-21T05:30:32.305Z,4.68
2022-10-21T05:32:06.006Z,4.72
2022-10-21T05:33:39.228Z,4.79
2022-10-21T05:35:13.159Z,4.80
2022-10-21T05:36:48.330Z,4.81
2022-10-21T05:38:21.432Z,4.82
2022-10-21T05:39:54.740Z,4.82
2022-10-21T05:41:28.094Z,4.87
2022-10-21T05:43:02.975Z,4.90
2022-10-21T05:44:36.099Z,4.93
2022-10-21T05:46:10.026Z,4.95
2022-10-21T05:47:43.386Z,4.98
2022-10-21T05:49:16.669Z,5.05
2022-10-21T05:50:53.682Z,5.11
2022-10-21T05:52:26.913Z,5.20
2022-10-21T05:54:00.213Z,5.27
2022-10-21T05:55:33.482Z,5.36
2022-10-21T05:57:06.578Z,5.49
2022-10-21T05:58:41.230Z,5.96
2022-10-21T06:00:14.870Z,6.31
2022-10-21T06:01:48.113Z,6.70
2022-10-21T06:03:21.557Z,7.13
2022-10-21T06:04:54.994Z,7.66
2022-10-21T06:06:28.301Z,8.17
2022-10-21T06:08:01.533Z,8.65
2022-10-21T06:09:34.761Z,9.17
2022-10-21T06:11:09.799Z,9.48
2022-10-21T06:12:42.925Z,9.73
2022-10-21T06:14:17.557Z,9.93
2022-10-21T06:15:51.161Z,10.06
2022-10-21T06:17:24.857Z,10.30
2022-10-21T06:18:57.985Z,10.46
2022-10-21T06:20:30.245Z,10.40
2022-10-21T06:22:03.373Z,10.71
2022-10-21T06:23:37.181Z,10.93
2022-10-21T06:25:10.523Z,11.12
2022-10-21T06:26:43.927Z,11.19
2022-10-21T06:28:17.035Z,11.43
2022-10-21T06:29:52.172Z,11.70
2022-10-21T06:31:25.296Z,11.88
2022-10-21T06:32:58.625Z,11.93
2022-10-21T06:34:31.780Z,12.11
2022-10-21T06:36:05.813Z,12.29
2022-10-21T06:37:39.161Z,12.48
2022-10-21T06:39:12.584Z,12.78
2022-10-21T06:40:48.665Z,12.78
2022-10-21T06:42:22.229Z,12.90
2022-10-21T06:43:55.358Z,12.95
2022-10-21T06:45:30.039Z,13.16
2022-10-21T06:47:03.183Z,13.32
2022-10-21T06:48:36.803Z,13.52
2022-10-21T06:50:10.137Z,13.77
2022-10-21T06:51:43.407Z,13.95
2022-10-21T06:53:16.581Z,14.33
2022-10-21T06:54:50.735Z,14.29
2022-10-21T06:56:25.366Z,14.47
2022-10-21T06:57:59.718Z,14.60
2022-10-21T06:59:32.989Z,14.81
2022-10-21T07:01:21.438Z,15.09
2022-10-21T07:03:04.165Z,15.38
2022-10-21T07:04:37.456Z,15.51
2022-10-21T07:06:11.016Z,15.59
2022-10-21T07:07:44.998Z,15.68
2022-10-21T07:09:18.484Z,15.68
2022-10-21T07:10:51.814Z,15.83
2022-10-21T07:12:25.741Z,15.97
2022-10-21T07:14:00.823Z,16.09
2022-10-21T07:15:33.980Z,16.16
2022-10-21T07:17:08.741Z,16.24
2022-10-21T07:18:42.737Z,16.38
2022-10-21T07:20:16.246Z,16.15
2022-10-21T07:21:49.638Z,16.30
2022-10-21T07:23:23.164Z,16.49
2022-10-21T07:24:56.398Z,16.78
2022-10-21T07:26:32.079Z,16.85
2022-10-21T07:28:05.325Z,16.87
2022-10-21T07:29:39.666Z,16.96
2022-10-21T07:31:13.144Z,16.97
2022-10-21T07:32:47.802Z,16.91
2022-10-21T07:34:21.086Z,16.61
2022-10-21T07:36:04.990Z,16.83
2022-10-21T07:37:38.375Z,16.92
2022-10-21T07:39:15.673Z,17.00
2022-10-21T07:40:48.797Z,17.18
2022-10-21T07:42:24.354Z,17.40
2022-10-21T07:43:58.504Z,17.48
2022-10-21T07:45:31.812Z,17.71
2022-10-21T07:47:04.996Z,17.86
2022-10-21T07:48:40.029Z,17.94
2022-10-21T07:50:13.289Z,18.00
2022-10-21T07:51:47.180Z,18.25
2022-10-21T07:53:21.658Z,18.56
2022-10-21T07:54:55.022Z,18.88
2022-10-21T07:56:30.226Z,19.18
2022-10-21T07:58:03.606Z,19.38
2022-10-21T07:59:36.824Z,19.41
2022-10-21T08:01:12.065Z,19.60
2022-10-21T08:02:45.222Z,19.55
2022-10-21T08:04:24.688Z,19.83
2022-10-21T08:05:58.345Z,19.88
2022-10-21T08:07:32.246Z,19.73
2022-10-21T08:09:05.802Z,19.76
2022-10-21T08:10:42.790Z,19.95
2022-10-21T08:12:16.009Z,20.11
2022-10-21T08:13:49.200Z,20.23
2022-10-21T08:15:22.381Z,20.37
2022-10-21T08:16:56.313Z,20.53
2022-10-21T08:18:29.841Z,20.45
2022-10-21T08:20:04.860Z,20.63
2022-10-21T08:21:38.893Z,20.86
2022-10-21T08:23:13.751Z,21.03
2022-10-21T08:24:46.901Z,20.94
2022-10-21T08:26:20.267Z,20.84
2022-10-21T08:27:53.514Z,20.83
2022-10-21T08:29:27.029Z,21.05
2022-10-21T08:31:07.803Z,21.08
2022-10-21T08:32:41.255Z,21.14
2022-10-21T08:34:14.772Z,21.29
2022-10-21T08:35:49.449Z,21.39
2022-10-21T08:37:25.509Z,21.36
2022-10-21T08:38:59.412Z,21.44
2022-10-21T08:40:39.153Z,21.46
2022-10-21T08:42:18.797Z,21.62
2022-10-21T08:43:54.368Z,21.55
2022-10-21T08:45:32.749Z,21.27
2022-10-21T08:47:12.866Z,21.07
2022-10-21T08:48:51.389Z,20.74
2022-10-21T08:50:29.456Z,20.26
2022-10-21T08:52:07.710Z,19.85
2022-10-21T08:53:45.233Z,19.50
2022-10-21T08:55:22.498Z,19.32
2022-10-21T08:56:59.179Z,19.17
2022-10-21T08:58:32.395Z,18.95
2022-10-21T09:00:15.847Z,18.43
2022-10-21T09:01:56.385Z,17.93
2022-10-21T09:03:38.478Z,17.81
2022-10-21T09:07:16.444Z,17.94
2022-10-21T09:09:02.166Z,17.97
2022-10-21T09:10:47.727Z,17.83
2022-10-21T09:12:28.283Z,17.77
2022-10-21T09:14:27.621Z,17.70
2022-10-21T09:16:09.279Z,17.72
2022-10-21T09:17:52.149Z,17.79
2022-10-21T09:19:37.337Z,17.87
2022-10-21T09:21:18.711Z,17.94
2022-10-21T09:23:04.491Z,18.04
2022-10-21T09:24:43.529Z,18.08
2022-10-21T09:26:30.293Z,18.21
2022-10-21T09:28:12.558Z,18.08
2022-10-21T09:29:47.535Z,18.08
2022-10-21T09:31:22.630Z,18.03
2022-10-21T09:33:00.269Z,18.08
2022-10-21T09:34:42.290Z,18.13
2022-10-21T09:36:20.660Z,18.05
2022-10-21T09:37:58.858Z,18.06
2022-10-21T09:39:39.925Z,18.07
2022-10-21T09:41:18.119Z,18.15
2022-10-21T09:42:55.807Z,18.02
2022-10-21T09:44:29.693Z,18.32
2022-10-21T09:46:03.006Z,18.41
2022-10-21T09:47:36.301Z,18.48
2022-10-21T09:49:54.049Z,18.60
2022-10-21T09:51:17.260Z,18.63
2022-10-21T09:52:58.781Z,18.65
2022-10-21T09:54:36.607Z,18.68
2022-10-21T09:56:15.117Z,18.74
2022-10-21T09:57:55.372Z,18.84
2022-10-21T09:59:33.235Z,18.90
2022-10-21T10:01:07.634Z,18.98
2022-10-21T10:02:44.047Z,18.95
2022-10-21T10:04:24.229Z,19.03
2022-10-21T10:05:58.080Z,19.11
2022-10-21T10:07:37.306Z,19.16
2022-10-21T10:09:28.051Z,19.10
2022-10-21T10:11:17.757Z,19.01
2022-10-21T10:12:57.064Z,18.87
2022-10-21T10:14:33.797Z,18.87
2022-10-21T10:16:23.743Z,18.90
2022-10-21T10:17:58.380Z,18.97
2022-10-21T10:19:31.653Z,19.04
2022-10-21T10:21:11.741Z,19.06
2022-10-21T10:22:45.802Z,19.12
2022-10-21T10:24:22.727Z,19.12
2022-10-21T10:25:56.291Z,19.16
2022-10-21T10:27:29.573Z,19.24
2022-10-21T10:29:11.943Z,19.33
2022-10-21T10:30:49.280Z,19.54
2022-10-21T10:32:26.083Z,19.61
2022-10-21T10:34:05.073Z,19.61
2022-10-21T10:35:40.148Z,19.51
2022-10-21T10:37:19.747Z,19.48
2022-10-21T10:38:56.089Z,19.53
2022-10-21T10:40:39.478Z,19.59
2022-10-21T10:42:17.933Z,19.65
2022-10-21T10:43:54.386Z,19.62
2022-10-21T10:45:27.938Z,19.63
2022-10-21T10:47:03.337Z,19.60
2022-10-21T10:48:42.221Z,19.72
2022-10-21T10:50:43.475Z,19.78
2022-10-21T10:52:22.462Z,19.79
2022-10-21T10:54:04.528Z,19.85
2022-10-21T10:55:45.336Z,19.93
2022-10-21T10:57:26.534Z,19.91
2022-10-21T10:59:16.284Z,19.90
2022-10-21T11:00:53.289Z,19.89
2022-10-21T11:02:38.250Z,19.84
2022-10-21T11:04:17.763Z,19.72
2022-10-21T11:05:54.377Z,19.71
2022-10-21T11:07:33.037Z,19.76
2022-10-21T11:09:09.604Z,19.75
2022-10-21T11:10:48.244Z,19.76
2022-10-21T11:12:27.228Z,19.78
2022-10-21T11:15:59.170Z,19.93
2022-10-21T11:17:39.128Z,20.02
2022-10-21T11:19:20.349Z,20.07
2022-10-21T11:21:07.435Z,20.10
2022-10-21T11:22:47.220Z,20.08
2022-10-21T11:24:33.633Z,20.04
2022-10-21T11:26:20.934Z,20.03
2022-10-21T11:28:08.562Z,20.08
2022-10-21T11:29:49.152Z,20.10
2022-10-21T11:31:29.392Z,20.10
2022-10-21T11:33:16.024Z,20.12
2022-10-21T11:34:58.177Z,20.12
2022-10-21T11:36:39.076Z,20.08
2022-10-21T11:38:48.267Z,20.13
2022-10-21T11:40:32.685Z,20.19
2022-10-21T11:42:18.633Z,20.27
2022-10-21T11:44:00.459Z,20.34
2022-10-21T11:45:49.816Z,20.30
2022-10-21T11:47:31.786Z,20.44
2022-10-21T11:49:19.361Z,20.49
2022-10-21T11:51:03.817Z,20.51
2022-10-21T11:52:49.631Z,20.53
2022-10-21T11:55:01.998Z,20.46
2022-10-21T11:56:46.622Z,20.48
2022-10-21T11:58:34.066Z,20.48
2022-10-21T12:00:14.441Z,20.49
2022-10-21T12:01:55.353Z,20.45
2022-10-21T12:04:02.414Z,20.46
2022-10-21T12:05:42.814Z,20.41
2022-10-21T12:07:28.647Z,20.37
2022-10-21T12:09:06.777Z,20.32
2022-10-21T12:10:46.201Z,20.34
2022-10-21T12:12:24.265Z,20.37
2022-10-21T12:14:08.044Z,20.42
2022-10-21T12:15:44.627Z,20.45
2022-10-21T12:17:20.639Z,20.42
2022-10-21T12:18:57.141Z,20.43
2022-10-21T12:20:30.403Z,20.48
2022-10-21T12:22:04.433Z,20.51
2022-10-21T12:23:37.672Z,20.53
2022-10-21T12:25:25.569Z,20.51
2022-10-21T12:27:08.846Z,20.52
2022-10-21T12:28:50.644Z,20.52
2022-10-21T12:30:33.853Z,20.54
2022-10-21T12:32:16.177Z,20.52
2022-10-21T12:33:51.129Z,20.54
2022-10-21T12:35:28.676Z,20.52
2022-10-21T12:37:02.178Z,20.48
2022-10-21T12:38:47.837Z,20.49
2022-10-21T12:40:37.525Z,20.47
2022-10-21T12:42:14.769Z,20.38
2022-10-21T12:43:54.557Z,20.41
2022-10-21T12:45:33.035Z,20.41
2022-10-21T12:47:24.562Z,20.39
2022-10-21T12:48:59.153Z,20.41
2022-10-21T12:50:34.136Z,20.39
2022-10-21T12:52:12.788Z,20.41
2022-10-21T12:55:28.374Z,20.47
2022-10-21T12:57:04.080Z,20.46
2022-10-21T12:58:41.461Z,20.46
2022-10-21T13:00:17.783Z,20.49
2022-10-21T13:02:21.234Z,20.45
2022-10-21T13:03:56.722Z,20.41
2022-10-21T13:06:02.066Z,20.40
2022-10-21T13:07:37.924Z,20.41
2022-10-21T13:09:35.998Z,20.37
2022-10-21T13:11:26.349Z,20.32
2022-10-21T13:13:32.336Z,20.23
2022-10-21T13:15:46.434Z,20.19
2022-10-21T13:17:50.084Z,20.23
2022-10-21T13:19:36.228Z,20.21
2022-10-21T13:21:24.391Z,20.21
2022-10-21T13:23:36.020Z,20.18
2022-10-21T13:25:22.229Z,20.12
2022-10-21T13:26:57.362Z,20.08
2022-10-21T13:28:30.763Z,20.12
2022-10-21T13:30:08.094Z,20.00
2022-10-21T13:31:41.953Z,20.19
2022-10-21T13:33:20.764Z,20.20
2022-10-21T13:35:01.948Z,20.24
2022-10-21T13:36:42.883Z,20.26
2022-10-21T13:38:22.552Z,20.26
2022-10-21T13:39:57.499Z,20.25
2022-10-21T13:41:32.043Z,20.22
2022-10-21T13:43:09.957Z,20.22
2022-10-21T13:44:51.057Z,20.23
2022-10-21T13:46:28.376Z,20.20
2022-10-21T13:48:04.091Z,20.17
2022-10-21T13:49:40.469Z,20.17
2022-10-21T13:51:20.090Z,20.12
2022-10-21T13:52:55.436Z,20.10
2022-10-21T13:54:36.067Z,20.08
2022-10-21T13:56:19.796Z,20.15
2022-10-21T13:57:55.008Z,20.17
2022-10-21T13:59:32.667Z,20.19
2022-10-21T14:01:10.623Z,20.12
2022-10-21T14:02:47.849Z,20.11
2022-10-21T14:04:24.266Z,20.11
2022-10-21T14:06:01.610Z,20.08
2022-10-21T14:07:34.929Z,20.02
2022-10-21T14:09:08.917Z,20.06
2022-10-21T14:10:47.114Z,20.00
2022-10-21T14:12:25.646Z,19.99
2022-10-21T14:14:03.740Z,20.00
2022-10-21T14:15:43.462Z,19.97
2022-10-21T14:17:19.225Z,20.03
2022-10-21T14:18:52.718Z,20.06
2022-10-21T14:20:30.369Z,20.02
2022-10-21T14:23:46.733Z,19.96
2022-10-21T14:25:20.350Z,19.94
2022-10-21T14:26:53.979Z,19.91
2022-10-21T14:28:27.890Z,19.85
2022-10-21T14:30:04.739Z,19.82
2022-10-21T14:31:38.789Z,19.77
2022-10-21T14:33:16.491Z,19.76
2022-10-21T14:35:00.816Z,19.73
2022-10-21T14:36:34.140Z,19.69
2022-10-21T14:40:21.921Z,19.64
2022-10-21T14:41:56.530Z,19.59
2022-10-21T14:43:35.735Z,19.56
2022-10-21T14:45:16.328Z,19.50
2022-10-21T14:46:53.734Z,19.44
2022-10-21T14:48:29.522Z,19.38
2022-10-21T14:50:04.131Z,19.36
2022-10-21T14:51:38.573Z,19.33
2022-10-21T14:53:16.692Z,19.26
2022-10-21T14:54:54.675Z,19.25
2022-10-21T14:56:35.248Z,19.18
2022-10-21T14:58:12.211Z,19.14
2022-10-21T14:59:45.606Z,19.03
2022-10-21T15:01:21.565Z,18.92
2022-10-21T15:02:56.397Z,18.86
2022-10-21T15:04:51.734Z,18.74
2022-10-21T15:06:26.969Z,18.72
2022-10-21T15:08:17.450Z,18.63
2022-10-21T15:10:17.746Z,18.54
2022-10-21T15:11:52.464Z,18.46
2022-10-21T15:13:26.007Z,18.41
2022-10-21T15:15:03.168Z,18.35
2022-10-21T15:16:36.745Z,18.34
2022-10-21T15:18:14.528Z,18.29
2022-10-21T15:19:50.338Z,18.20
2022-10-21T15:21:31.878Z,18.14
2022-10-21T15:23:05.358Z,17.96
2022-10-21T15:24:44.827Z,17.98
2022-10-21T15:26:22.577Z,17.95
2022-10-21T15:28:00.022Z,17.89
2022-10-21T15:29:38.505Z,17.83
2022-10-21T15:31:17.605Z,17.71
2022-10-21T15:32:51.568Z,17.65
2022-10-21T15:34:25.224Z,17.62
2022-10-21T15:36:02.745Z,17.59
2022-10-21T15:37:36.185Z,17.55
2022-10-21T15:39:09.742Z,17.52
2022-10-21T15:40:43.118Z,17.49
2022-10-21T15:42:18.250Z,17.45
2022-10-21T15:43:58.514Z,17.41
2022-10-21T15:45:31.801Z,17.33
2022-10-21T15:47:08.367Z,17.24
2022-10-21T15:48:41.582Z,17.14
2022-10-21T15:50:15.739Z,17.09
2022-10-21T15:51:50.410Z,17.02
2022-10-21T15:53:23.717Z,17.00
2022-10-21T15:54:56.970Z,16.98
2022-10-21T15:56:30.834Z,17.03
2022-10-21T15:58:04.053Z,17.02
2022-10-21T15:59:38.722Z,17.03
2022-10-21T16:01:13.856Z,17.04
2022-10-21T16:02:48.324Z,17.01
2022-10-21T16:04:21.886Z,16.95
2022-10-21T16:05:54.171Z,16.86
2022-10-21T16:07:29.798Z,16.78
2022-10-21T16:09:03.066Z,16.73
2022-10-21T16:10:38.196Z,16.67
2022-10-21T16:12:11.872Z,16.62
2022-10-21T16:13:45.116Z,16.60
2022-10-21T16:15:21.089Z,16.54
2022-10-21T16:16:57.394Z,16.50
2022-10-21T16:18:30.682Z,16.45
2022-10-21T16:20:04.608Z,16.38
2022-10-21T16:21:38.209Z,16.34
2022-10-21T16:23:11.775Z,16.26
2022-10-21T16:24:45.111Z,16.23
2022-10-21T16:26:21.878Z,16.13
2022-10-21T16:27:56.714Z,16.07
2022-10-21T16:29:30.120Z,16.00
2022-10-21T16:31:05.273Z,15.94
2022-10-21T16:32:38.709Z,15.85
2022-10-21T16:34:12.208Z,15.77
2022-10-21T16:35:48.622Z,15.70
2022-10-21T16:37:25.889Z,15.59
2022-10-21T16:38:59.171Z,15.47
2022-10-21T16:40:35.251Z,15.42
2022-10-21T16:42:09.269Z,15.35
2022-10-21T16:43:42.908Z,15.25
2022-10-21T16:45:16.506Z,15.17
2022-10-21T16:46:53.677Z,15.05
2022-10-21T16:48:26.876Z,14.97
2022-10-21T16:50:03.264Z,14.87
2022-10-21T16:51:37.461Z,14.80
2022-10-21T16:53:15.616Z,14.70
2022-10-21T16:54:49.978Z,14.69
2022-10-21T16:56:23.483Z,14.69
2022-10-21T16:57:56.671Z,14.64
2022-10-21T16:59:30.001Z,14.58
2022-10-21T17:01:04.345Z,14.52
2022-10-21T17:02:40.400Z,14.41
2022-10-21T17:04:15.671Z,14.33
2022-10-21T17:05:50.370Z,14.26
2022-10-21T17:07:23.503Z,14.20
2022-10-21T17:08:57.829Z,14.14
2022-10-21T17:10:31.085Z,14.04
2022-10-21T17:12:05.452Z,13.97
2022-10-21T17:13:38.643Z,13.87
2022-10-21T17:15:13.690Z,13.83
2022-10-21T17:16:47.018Z,13.77
2022-10-21T17:18:21.726Z,13.70
2022-10-21T17:19:54.943Z,13.61
2022-10-21T17:21:30.266Z,13.52
2022-10-21T17:23:04.032Z,13.45
2022-10-21T17:24:37.423Z,13.41
2022-10-21T17:26:10.571Z,13.34
2022-10-21T17:27:43.931Z,13.09
2022-10-21T17:29:17.282Z,13.17
2022-10-21T17:30:52.743Z,13.09
2022-10-21T17:32:26.045Z,13.03
2022-10-21T17:34:06.428Z,13.05
2022-10-21T17:35:39.918Z,13.01
2022-10-21T17:37:13.343Z,12.96
2022-10-21T17:38:46.989Z,12.90
2022-10-21T17:40:23.306Z,12.85
2022-10-21T17:41:56.547Z,12.84
2022-10-21T17:43:29.758Z,12.79
2022-10-21T17:45:03.945Z,12.73
2022-10-21T17:46:37.428Z,12.64
2022-10-21T17:48:10.654Z,12.58
2022-10-21T17:49:45.350Z,12.45
2022-10-21T17:51:18.853Z,12.43
2022-10-21T17:52:52.577Z,12.37
2022-10-21T17:54:28.556Z,12.33
2022-10-21T17:56:05.148Z,12.23
2022-10-21T17:57:38.362Z,12.10
2022-10-21T17:59:12.230Z,12.02
2022-10-21T18:00:45.808Z,11.96
2022-10-21T18:02:19.317Z,11.92
2022-10-21T18:03:52.914Z,11.87
2022-10-21T18:05:27.634Z,11.81
2022-10-21T18:07:01.712Z,11.74
2022-10-21T18:08:35.837Z,11.76
2022-10-21T18:10:09.833Z,11.71
2022-10-21T18:11:43.156Z,11.68
2022-10-21T18:13:18.233Z,11.65
2022-10-21T18:14:51.774Z,11.62
2022-10-21T18:16:26.145Z,11.56
2022-10-21T18:17:59.609Z,11.49
2022-10-21T18:19:34.075Z,11.46
2022-10-21T18:21:10.919Z,11.44
2022-10-21T18:22:44.069Z,11.43
2022-10-21T18:24:17.400Z,11.43
2022-10-21T18:25:50.798Z,11.39
2022-10-21T18:27:24.137Z,11.36
2022-10-21T18:28:59.037Z,11.31
2022-10-21T18:30:32.725Z,11.36
2022-10-21T18:32:06.142Z,11.29
2022-10-21T18:33:39.573Z,11.23
2022-10-21T18:35:12.732Z,11.18
2022-10-21T18:36:47.509Z,11.14
2022-10-21T18:38:20.808Z,11.11
2022-10-21T18:39:56.825Z,11.09
2022-10-21T18:41:32.346Z,11.03
2022-10-21T18:43:05.676Z,11.02
2022-10-21T18:44:38.977Z,10.95
2022-10-21T18:46:12.374Z,10.96
2022-10-21T18:47:47.449Z,10.96
2022-10-21T18:49:20.778Z,10.95
2022-10-21T18:50:53.149Z,10.92
2022-10-21T18:52:27.862Z,10.93
2022-10-21T18:54:01.088Z,10.92
2022-10-21T18:55:35.434Z,10.88
2022-10-21T18:57:10.367Z,10.85
2022-10-21T18:58:44.601Z,10.74
2022-10-21T19:00:18.169Z,10.80
2022-10-21T19:01:53.045Z,10.75
2022-10-21T19:03:26.848Z,10.77
2022-10-21T19:05:02.062Z,10.72
2022-10-21T19:06:41.031Z,10.67
2022-10-21T19:08:15.720Z,10.62
2022-10-21T19:09:49.021Z,10.51
2022-10-21T19:11:22.401Z,10.27
2022-10-21T19:12:55.957Z,10.18
2022-10-21T19:14:29.435Z,10.05
2022-10-21T19:16:02.801Z,9.98
2022-10-21T19:17:36.174Z,9.98
2022-10-21T19:19:09.817Z,9.93
2022-10-21T19:20:43.121Z,9.92
2022-10-21T19:22:17.571Z,9.87
2022-10-21T19:23:53.548Z,9.80
2022-10-21T19:25:26.663Z,9.77
2022-10-21T19:27:00.698Z,9.74
2022-10-21T19:28:35.031Z,9.69
2022-10-21T19:30:09.267Z,9.66
2022-10-21T19:31:43.140Z,9.55
2022-10-21T19:33:16.521Z,9.62
2022-10-21T19:34:50.090Z,9.51
2022-10-21T19:36:23.369Z,9.32
2022-10-21T19:38:00.559Z,9.24
2022-10-21T19:39:38.185Z,9.14
2022-10-21T19:41:13.016Z,9.21
2022-10-21T19:42:46.229Z,9.21
2022-10-21T19:44:19.514Z,9.16
2022-10-21T19:45:53.273Z,9.14
2022-10-21T19:47:26.831Z,9.11
2022-10-21T19:49:02.312Z,8.95
2022-10-21T19:50:35.436Z,9.01
2022-10-21T19:52:08.782Z,9.02
2022-10-21T19:53:42.526Z,9.02
2022-10-21T19:55:19.056Z,8.95
2022-10-21T19:56:53.430Z,9.05
2022-10-21T19:58:26.700Z,9.02
2022-10-21T20:00:00.126Z,9.00
2022-10-21T20:01:34.669Z,8.98
2022-10-21T20:03:07.851Z,8.94
2022-10-21T20:04:41.491Z,8.91
2022-10-21T20:06:17.246Z,8.89
2022-10-21T20:07:50.480Z,8.87
2022-10-21T20:09:23.616Z,8.87
2022-10-21T20:11:01.351Z,8.89
2022-10-21T20:12:35.183Z,8.91
2022-10-21T20:14:08.747Z,8.93
2022-10-21T20:15:48.035Z,8.93
2022-10-21T20:17:21.425Z,8.91
2022-10-21T20:18:56.088Z,8.89
2022-10-21T20:20:29.293Z,8.89
2022-10-21T20:22:02.413Z,8.85
2022-10-21T20:23:35.790Z,8.79
2022-10-21T20:25:10.313Z,8.73
2022-10-21T20:26:49.125Z,8.62
2022-10-21T20:28:22.829Z,8.52
2022-10-21T20:29:56.144Z,8.48
2022-10-21T20:31:30.475Z,8.42
2022-10-21T20:33:03.733Z,8.35
2022-10-21T20:34:37.746Z,8.31
2022-10-21T20:36:14.139Z,8.30
2022-10-21T20:37:47.830Z,8.09
2022-10-21T20:39:21.061Z,8.20
2022-10-21T20:40:53.929Z,8.18
2022-10-21T20:42:28.615Z,8.12
2022-10-21T20:44:02.631Z,8.07
2022-10-21T20:45:36.293Z,8.01
2022-10-21T20:47:09.439Z,7.99
2022-10-21T20:48:43.925Z,7.96
2022-10-21T20:50:17.519Z,7.94
2022-10-21T20:51:50.711Z,7.90
2022-10-21T20:53:25.194Z,7.82
2022-10-21T20:55:00.376Z,7.78
2022-10-21T20:56:36.261Z,7.75
2022-10-21T20:58:10.856Z,7.71
2022-10-21T20:59:43.989Z,7.72
2022-10-21T21:01:20.446Z,7.73
2022-10-21T21:02:53.863Z,7.72
2022-10-21T21:04:27.130Z,7.71
2022-10-21T21:06:02.447Z,7.63
2022-10-21T21:07:35.671Z,7.69
2022-10-21T21:11:02.786Z,7.53
2022-10-21T21:12:35.989Z,7.49